Terminal Aerodrome Forecast
Issued by NWS Mt. Holly, NJ

Home | Current Version | Previous Version | Text Only | Print | Product List | Glossary On
Versions: 1 2 3 4 5 6 7 8 9 10 11 12 13 14 15 16 17 18 19 20 21 22 23 24 25 26 27 28 29 30 31 32 33 34
414
FTUS41 KPHI 292201 AAC
TAFPHL
TAF AMD
KPHL 292201Z 2922/3024 34012G20KT P6SM SKC
     FM300000 34010KT P6SM SKC
     FM300200 36007KT P6SM SCT250
     FM301000 02005KT P6SM BKN250
     FM301600 12005KT P6SM SCT150 BKN250
     FM302000 17005KT P6SM BKN150=

USA.gov is the U.S. government's official web portal to all federal, state and local government web resources and services.